sensor_id;sensor_type;location;lat;lon;timestamp;P1;durP1;ratioP1;P2;durP2;ratioP2
4980;SDS011;2507;50.392;7.482;2023-08-20T00:01:04;19.53;;;17.30;;
4980;SDS011;2507;50.392;7.482;2023-08-20T00:03:30;17.33;;;15.50;;
4980;SDS011;2507;50.392;7.482;2023-08-20T00:05:55;17.17;;;15.33;;
4980;SDS011;2507;50.392;7.482;2023-08-20T00:08:21;16.93;;;15.23;;
4980;SDS011;2507;50.392;7.482;2023-08-20T00:10:46;18.83;;;16.00;;
4980;SDS011;2507;50.392;7.482;2023-08-20T00:13:12;16.53;;;15.03;;
4980;SDS011;2507;50.392;7.482;2023-08-20T00:15:37;17.20;;;14.90;;
4980;SDS011;2507;50.392;7.482;2023-08-20T00:18:03;15.90;;;14.50;;
4980;SDS011;2507;50.392;7.482;2023-08-20T00:20:28;16.07;;;14.47;;
4980;SDS011;2507;50.392;7.482;2023-08-20T00:22:54;16.47;;;14.77;;
4980;SDS011;2507;50.392;7.482;2023-08-20T00:25:20;15.53;;;13.73;;
4980;SDS011;2507;50.392;7.482;2023-08-20T00:27:45;16.00;;;14.40;;
4980;SDS011;2507;50.392;7.482;2023-08-20T00:30:11;15.27;;;13.90;;
4980;SDS011;2507;50.392;7.482;2023-08-20T00:32:37;14.73;;;13.43;;
4980;SDS011;2507;50.392;7.482;2023-08-20T00:35:03;15.80;;;14.40;;
4980;SDS011;2507;50.392;7.482;2023-08-20T00:37:29;14.63;;;13.33;;
4980;SDS011;2507;50.392;7.482;2023-08-20T00:39:54;16.60;;;14.87;;
4980;SDS011;2507;50.392;7.482;2023-08-20T00:42:20;16.20;;;14.67;;
4980;SDS011;2507;50.392;7.482;2023-08-20T00:44:45;17.00;;;15.50;;
4980;SDS011;2507;50.392;7.482;2023-08-20T00:47:10;16.57;;;14.90;;
4980;SDS011;2507;50.392;7.482;2023-08-20T00:49:37;16.33;;;14.70;;
4980;SDS011;2507;50.392;7.482;2023-08-20T00:52:03;14.07;;;12.90;;
4980;SDS011;2507;50.392;7.482;2023-08-20T00:54:28;15.57;;;14.17;;
4980;SDS011;2507;50.392;7.482;2023-08-20T00:56:56;15.33;;;13.93;;
4980;SDS011;2507;50.392;7.482;2023-08-20T00:59:24;15.27;;;13.97;;
4980;SDS011;2507;50.392;7.482;2023-08-20T01:01:49;19.33;;;13.70;;
4980;SDS011;2507;50.392;7.482;2023-08-20T01:04:15;14.10;;;12.90;;
4980;SDS011;2507;50.392;7.482;2023-08-20T01:12:15;14.13;;;12.73;;
4980;SDS011;2507;50.392;7.482;2023-08-20T01:14:41;15.23;;;13.70;;
4980;SDS011;2507;50.392;7.482;2023-08-20T01:17:07;15.43;;;14.00;;
4980;SDS011;2507;50.392;7.482;2023-08-20T01:19:32;15.20;;;13.73;;
4980;SDS011;2507;50.392;7.482;2023-08-20T01:24:46;16.80;;;13.90;;
4980;SDS011;2507;50.392;7.482;2023-08-20T01:30:15;17.80;;;15.70;;
4980;SDS011;2507;50.392;7.482;2023-08-20T01:32:41;20.60;;;15.23;;
4980;SDS011;2507;50.392;7.482;2023-08-20T01:35:08;17.87;;;16.07;;
4980;SDS011;2507;50.392;7.482;2023-08-20T01:37:37;17.20;;;15.40;;
4980;SDS011;2507;50.392;7.482;2023-08-20T01:40:03;18.03;;;16.20;;
4980;SDS011;2507;50.392;7.482;2023-08-20T01:42:28;19.13;;;16.33;;
4980;SDS011;2507;50.392;7.482;2023-08-20T01:44:54;18.50;;;16.60;;
4980;SDS011;2507;50.392;7.482;2023-08-20T01:47:19;17.80;;;15.97;;
4980;SDS011;2507;50.392;7.482;2023-08-20T01:49:44;17.03;;;15.23;;
4980;SDS011;2507;50.392;7.482;2023-08-20T01:52:10;16.40;;;14.80;;
4980;SDS011;2507;50.392;7.482;2023-08-20T01:54:35;17.63;;;15.90;;
4980;SDS011;2507;50.392;7.482;2023-08-20T01:57:01;17.50;;;15.70;;
4980;SDS011;2507;50.392;7.482;2023-08-20T01:59:26;17.00;;;15.37;;
4980;SDS011;2507;50.392;7.482;2023-08-20T02:01:51;18.13;;;16.37;;
4980;SDS011;2507;50.392;7.482;2023-08-20T02:04:17;17.80;;;15.80;;
4980;SDS011;2507;50.392;7.482;2023-08-20T02:06:42;19.20;;;15.90;;
4980;SDS011;2507;50.392;7.482;2023-08-20T02:09:07;20.00;;;17.90;;
4980;SDS011;2507;50.392;7.482;2023-08-20T02:11:33;17.83;;;15.70;;
4980;SDS011;2507;50.392;7.482;2023-08-20T02:14:00;18.60;;;16.00;;
4980;SDS011;2507;50.392;7.482;2023-08-20T02:16:29;18.23;;;15.90;;
4980;SDS011;2507;50.392;7.482;2023-08-20T02:18:54;16.67;;;15.17;;
4980;SDS011;2507;50.392;7.482;2023-08-20T02:21:19;18.97;;;16.97;;
4980;SDS011;2507;50.392;7.482;2023-08-20T02:23:44;19.10;;;15.90;;
4980;SDS011;2507;50.392;7.482;2023-08-20T02:26:10;17.80;;;16.20;;
4980;SDS011;2507;50.392;7.482;2023-08-20T02:28:35;19.27;;;17.33;;
4980;SDS011;2507;50.392;7.482;2023-08-20T02:31:03;18.67;;;16.57;;
4980;SDS011;2507;50.392;7.482;2023-08-20T02:33:29;17.70;;;15.83;;
4980;SDS011;2507;50.392;7.482;2023-08-20T02:35:55;16.60;;;15.00;;
4980;SDS011;2507;50.392;7.482;2023-08-20T02:38:20;16.83;;;15.13;;
4980;SDS011;2507;50.392;7.482;2023-08-20T02:40:45;15.83;;;14.27;;
4980;SDS011;2507;50.392;7.482;2023-08-20T02:43:11;18.43;;;16.53;;
4980;SDS011;2507;50.392;7.482;2023-08-20T02:45:39;17.43;;;15.20;;
4980;SDS011;2507;50.392;7.482;2023-08-20T02:48:06;20.00;;;17.87;;
4980;SDS011;2507;50.392;7.482;2023-08-20T02:50:31;24.17;;;20.33;;
4980;SDS011;2507;50.392;7.482;2023-08-20T02:52:57;22.43;;;19.30;;
4980;SDS011;2507;50.392;7.482;2023-08-20T02:55:22;24.87;;;17.33;;
4980;SDS011;2507;50.392;7.482;2023-08-20T02:57:47;18.20;;;15.23;;
4980;SDS011;2507;50.392;7.482;2023-08-20T03:00:12;17.00;;;15.23;;
4980;SDS011;2507;50.392;7.482;2023-08-20T03:02:38;19.80;;;17.70;;
4980;SDS011;2507;50.392;7.482;2023-08-20T03:05:06;19.03;;;16.27;;
4980;SDS011;2507;50.392;7.482;2023-08-20T03:07:33;16.30;;;14.80;;
4980;SDS011;2507;50.392;7.482;2023-08-20T03:09:58;15.10;;;13.73;;
4980;SDS011;2507;50.392;7.482;2023-08-20T03:12:23;17.60;;;15.80;;
4980;SDS011;2507;50.392;7.482;2023-08-20T03:14:48;20.17;;;15.57;;
4980;SDS011;2507;50.392;7.482;2023-08-20T03:17:14;20.20;;;16.70;;
4980;SDS011;2507;50.392;7.482;2023-08-20T03:19:52;18.13;;;16.43;;
4980;SDS011;2507;50.392;7.482;2023-08-20T03:22:20;18.93;;;17.13;;
4980;SDS011;2507;50.392;7.482;2023-08-20T03:24:45;18.23;;;16.40;;
4980;SDS011;2507;50.392;7.482;2023-08-20T03:27:10;21.07;;;17.80;;
4980;SDS011;2507;50.392;7.482;2023-08-20T03:29:36;25.30;;;20.50;;
4980;SDS011;2507;50.392;7.482;2023-08-20T03:32:01;24.53;;;21.80;;
4980;SDS011;2507;50.392;7.482;2023-08-20T03:34:26;25.83;;;21.50;;
4980;SDS011;2507;50.392;7.482;2023-08-20T03:36:51;30.10;;;24.37;;
4980;SDS011;2507;50.392;7.482;2023-08-20T03:39:17;23.73;;;21.23;;
4980;SDS011;2507;50.392;7.482;2023-08-20T03:41:43;27.13;;;24.23;;
4980;SDS011;2507;50.392;7.482;2023-08-20T03:44:08;25.03;;;22.17;;
4980;SDS011;2507;50.392;7.482;2023-08-20T03:46:33;24.67;;;22.17;;
4980;SDS011;2507;50.392;7.482;2023-08-20T03:48:58;26.50;;;21.90;;
4980;SDS011;2507;50.392;7.482;2023-08-20T03:51:24;26.43;;;23.63;;
4980;SDS011;2507;50.392;7.482;2023-08-20T03:53:49;27.73;;;22.50;;
4980;SDS011;2507;50.392;7.482;2023-08-20T03:56:14;24.40;;;21.90;;
4980;SDS011;2507;50.392;7.482;2023-08-20T03:58:39;24.80;;;22.30;;
4980;SDS011;2507;50.392;7.482;2023-08-20T04:01:05;21.90;;;19.80;;
4980;SDS011;2507;50.392;7.482;2023-08-20T04:03:30;22.53;;;19.67;;
4980;SDS011;2507;50.392;7.482;2023-08-20T04:05:55;23.97;;;21.47;;
4980;SDS011;2507;50.392;7.482;2023-08-20T04:08:20;21.90;;;19.70;;
4980;SDS011;2507;50.392;7.482;2023-08-20T04:10:46;22.50;;;20.03;;
4980;SDS011;2507;50.392;7.482;2023-08-20T04:13:11;21.07;;;18.70;;
4980;SDS011;2507;50.392;7.482;2023-08-20T04:15:38;23.90;;;21.37;;
4980;SDS011;2507;50.392;7.482;2023-08-20T04:18:04;24.40;;;20.97;;
4980;SDS011;2507;50.392;7.482;2023-08-20T04:20:29;19.23;;;17.33;;
4980;SDS011;2507;50.392;7.482;2023-08-20T04:22:55;22.57;;;20.23;;
4980;SDS011;2507;50.392;7.482;2023-08-20T04:25:20;25.10;;;22.17;;
4980;SDS011;2507;50.392;7.482;2023-08-20T04:27:45;24.73;;;22.20;;
4980;SDS011;2507;50.392;7.482;2023-08-20T04:30:11;23.60;;;21.10;;
4980;SDS011;2507;50.392;7.482;2023-08-20T04:32:36;21.13;;;18.97;;
4980;SDS011;2507;50.392;7.482;2023-08-20T04:35:02;25.73;;;20.37;;
4980;SDS011;2507;50.392;7.482;2023-08-20T04:37:27;24.00;;;21.40;;
4980;SDS011;2507;50.392;7.482;2023-08-20T04:39:52;23.90;;;21.50;;
4980;SDS011;2507;50.392;7.482;2023-08-20T04:42:18;24.77;;;22.20;;
4980;SDS011;2507;50.392;7.482;2023-08-20T04:44:43;25.03;;;22.10;;
4980;SDS011;2507;50.392;7.482;2023-08-20T04:47:11;25.77;;;22.90;;
4980;SDS011;2507;50.392;7.482;2023-08-20T04:49:37;24.17;;;21.57;;
4980;SDS011;2507;50.392;7.482;2023-08-20T04:52:03;25.73;;;21.73;;
4980;SDS011;2507;50.392;7.482;2023-08-20T04:54:28;32.53;;;24.20;;
4980;SDS011;2507;50.392;7.482;2023-08-20T04:56:53;30.87;;;23.10;;
4980;SDS011;2507;50.392;7.482;2023-08-20T04:59:19;31.60;;;24.37;;
4980;SDS011;2507;50.392;7.482;2023-08-20T05:01:44;33.53;;;24.73;;
4980;SDS011;2507;50.392;7.482;2023-08-20T05:04:09;29.53;;;22.93;;
4980;SDS011;2507;50.392;7.482;2023-08-20T05:06:35;33.03;;;23.10;;
4980;SDS011;2507;50.392;7.482;2023-08-20T05:09:00;30.73;;;23.37;;
4980;SDS011;2507;50.392;7.482;2023-08-20T05:11:25;34.77;;;25.37;;
4980;SDS011;2507;50.392;7.482;2023-08-20T05:13:51;31.97;;;24.87;;
4980;SDS011;2507;50.392;7.482;2023-08-20T05:16:16;29.53;;;23.30;;
4980;SDS011;2507;50.392;7.482;2023-08-20T05:18:41;32.53;;;24.63;;
4980;SDS011;2507;50.392;7.482;2023-08-20T05:21:07;29.83;;;23.93;;
4980;SDS011;2507;50.392;7.482;2023-08-20T05:23:32;32.43;;;24.83;;
4980;SDS011;2507;50.392;7.482;2023-08-20T05:25:58;30.47;;;23.10;;
4980;SDS011;2507;50.392;7.482;2023-08-20T05:28:23;35.20;;;23.90;;
4980;SDS011;2507;50.392;7.482;2023-08-20T05:30:57;30.90;;;23.10;;
4980;SDS011;2507;50.392;7.482;2023-08-20T05:33:23;30.73;;;23.07;;
4980;SDS011;2507;50.392;7.482;2023-08-20T05:35:49;29.90;;;22.07;;
4980;SDS011;2507;50.392;7.482;2023-08-20T05:38:14;29.27;;;23.33;;
4980;SDS011;2507;50.392;7.482;2023-08-20T05:40:39;26.70;;;20.30;;
4980;SDS011;2507;50.392;7.482;2023-08-20T05:43:05;29.47;;;21.50;;
4980;SDS011;2507;50.392;7.482;2023-08-20T05:45:30;25.43;;;20.00;;
4980;SDS011;2507;50.392;7.482;2023-08-20T05:47:55;24.13;;;20.10;;
4980;SDS011;2507;50.392;7.482;2023-08-20T05:50:20;24.40;;;19.60;;
4980;SDS011;2507;50.392;7.482;2023-08-20T05:52:46;24.20;;;19.27;;
4980;SDS011;2507;50.392;7.482;2023-08-20T05:55:11;24.40;;;20.10;;
4980;SDS011;2507;50.392;7.482;2023-08-20T05:57:36;26.00;;;19.70;;
4980;SDS011;2507;50.392;7.482;2023-08-20T06:00:02;21.37;;;18.87;;
4980;SDS011;2507;50.392;7.482;2023-08-20T06:02:29;26.20;;;21.07;;
4980;SDS011;2507;50.392;7.482;2023-08-20T06:04:55;23.47;;;20.83;;
4980;SDS011;2507;50.392;7.482;2023-08-20T06:07:20;28.47;;;18.80;;
4980;SDS011;2507;50.392;7.482;2023-08-20T06:09:46;19.37;;;17.30;;
4980;SDS011;2507;50.392;7.482;2023-08-20T06:12:11;19.33;;;16.00;;
4980;SDS011;2507;50.392;7.482;2023-08-20T06:14:37;28.40;;;18.73;;
4980;SDS011;2507;50.392;7.482;2023-08-20T06:17:02;20.90;;;17.53;;
4980;SDS011;2507;50.392;7.482;2023-08-20T06:19:27;19.80;;;17.33;;
4980;SDS011;2507;50.392;7.482;2023-08-20T06:21:53;19.97;;;16.53;;
4980;SDS011;2507;50.392;7.482;2023-08-20T06:24:19;19.50;;;16.40;;
4980;SDS011;2507;50.392;7.482;2023-08-20T06:26:44;19.10;;;17.10;;
4980;SDS011;2507;50.392;7.482;2023-08-20T06:29:09;21.33;;;17.20;;
4980;SDS011;2507;50.392;7.482;2023-08-20T06:31:35;20.47;;;18.30;;
4980;SDS011;2507;50.392;7.482;2023-08-20T06:34:00;20.10;;;17.53;;
4980;SDS011;2507;50.392;7.482;2023-08-20T06:36:25;19.70;;;17.60;;
4980;SDS011;2507;50.392;7.482;2023-08-20T06:38:51;18.47;;;16.53;;
4980;SDS011;2507;50.392;7.482;2023-08-20T06:41:16;18.60;;;16.60;;
4980;SDS011;2507;50.392;7.482;2023-08-20T06:43:42;23.30;;;17.40;;
4980;SDS011;2507;50.392;7.482;2023-08-20T06:46:07;19.57;;;17.20;;
4980;SDS011;2507;50.392;7.482;2023-08-20T06:48:34;23.57;;;17.00;;
4980;SDS011;2507;50.392;7.482;2023-08-20T06:51:07;18.33;;;16.07;;
4980;SDS011;2507;50.392;7.482;2023-08-20T06:53:33;15.50;;;13.63;;
4980;SDS011;2507;50.392;7.482;2023-08-20T06:55:58;14.77;;;13.27;;
4980;SDS011;2507;50.392;7.482;2023-08-20T06:58:23;15.83;;;14.23;;
4980;SDS011;2507;50.392;7.482;2023-08-20T07:00:48;13.87;;;12.57;;
4980;SDS011;2507;50.392;7.482;2023-08-20T07:03:14;16.07;;;14.37;;
4980;SDS011;2507;50.392;7.482;2023-08-20T07:05:39;15.90;;;13.73;;
4980;SDS011;2507;50.392;7.482;2023-08-20T07:08:04;14.83;;;12.20;;
4980;SDS011;2507;50.392;7.482;2023-08-20T07:10:30;13.03;;;11.60;;
4980;SDS011;2507;50.392;7.482;2023-08-20T07:12:55;13.27;;;11.97;;
4980;SDS011;2507;50.392;7.482;2023-08-20T07:15:20;14.03;;;12.80;;
4980;SDS011;2507;50.392;7.482;2023-08-20T07:17:46;14.33;;;12.83;;
4980;SDS011;2507;50.392;7.482;2023-08-20T07:20:11;12.77;;;11.47;;
4980;SDS011;2507;50.392;7.482;2023-08-20T07:22:36;12.37;;;11.27;;
4980;SDS011;2507;50.392;7.482;2023-08-20T07:25:01;13.90;;;12.03;;
4980;SDS011;2507;50.392;7.482;2023-08-20T07:27:27;12.90;;;11.70;;
4980;SDS011;2507;50.392;7.482;2023-08-20T07:29:52;12.87;;;11.13;;
4980;SDS011;2507;50.392;7.482;2023-08-20T07:32:17;13.73;;;12.30;;
4980;SDS011;2507;50.392;7.482;2023-08-20T07:34:43;12.23;;;11.03;;
4980;SDS011;2507;50.392;7.482;2023-08-20T07:37:08;12.70;;;11.40;;
4980;SDS011;2507;50.392;7.482;2023-08-20T07:39:33;10.53;;;9.43;;
4980;SDS011;2507;50.392;7.482;2023-08-20T07:41:59;11.50;;;10.47;;
4980;SDS011;2507;50.392;7.482;2023-08-20T07:44:25;10.33;;;9.33;;
4980;SDS011;2507;50.392;7.482;2023-08-20T07:46:50;10.87;;;9.97;;
4980;SDS011;2507;50.392;7.482;2023-08-20T07:49:15;9.87;;;9.00;;
4980;SDS011;2507;50.392;7.482;2023-08-20T07:51:41;9.70;;;8.90;;
4980;SDS011;2507;50.392;7.482;2023-08-20T07:54:06;8.90;;;8.20;;
4980;SDS011;2507;50.392;7.482;2023-08-20T07:56:31;10.00;;;8.40;;
4980;SDS011;2507;50.392;7.482;2023-08-20T07:58:57;9.10;;;8.17;;
4980;SDS011;2507;50.392;7.482;2023-08-20T08:01:23;8.70;;;7.97;;
4980;SDS011;2507;50.392;7.482;2023-08-20T08:03:48;8.00;;;7.27;;
4980;SDS011;2507;50.392;7.482;2023-08-20T08:06:14;7.57;;;6.77;;
4980;SDS011;2507;50.392;7.482;2023-08-20T08:08:42;8.00;;;7.50;;
4980;SDS011;2507;50.392;7.482;2023-08-20T08:11:09;7.10;;;6.60;;
4980;SDS011;2507;50.392;7.482;2023-08-20T08:13:34;8.18;;;7.47;;
4980;SDS011;2507;50.392;7.482;2023-08-20T08:15:59;8.35;;;7.07;;
4980;SDS011;2507;50.392;7.482;2023-08-20T08:18:24;7.60;;;6.55;;
4980;SDS011;2507;50.392;7.482;2023-08-20T08:20:50;8.57;;;7.43;;
4980;SDS011;2507;50.392;7.482;2023-08-20T08:23:15;7.97;;;7.28;;
4980;SDS011;2507;50.392;7.482;2023-08-20T08:25:40;6.35;;;5.85;;
4980;SDS011;2507;50.392;7.482;2023-08-20T08:28:06;7.60;;;7.10;;
4980;SDS011;2507;50.392;7.482;2023-08-20T08:30:32;8.53;;;7.83;;
4980;SDS011;2507;50.392;7.482;2023-08-20T08:32:57;8.23;;;7.63;;
4980;SDS011;2507;50.392;7.482;2023-08-20T08:35:23;9.70;;;7.67;;
4980;SDS011;2507;50.392;7.482;2023-08-20T08:37:49;8.20;;;7.40;;
4980;SDS011;2507;50.392;7.482;2023-08-20T08:40:14;8.57;;;7.97;;
4980;SDS011;2507;50.392;7.482;2023-08-20T08:42:40;8.57;;;7.87;;
4980;SDS011;2507;50.392;7.482;2023-08-20T08:45:06;8.63;;;6.80;;
4980;SDS011;2507;50.392;7.482;2023-08-20T08:47:32;8.27;;;7.50;;
4980;SDS011;2507;50.392;7.482;2023-08-20T08:49:57;7.87;;;7.10;;
4980;SDS011;2507;50.392;7.482;2023-08-20T08:52:23;8.07;;;7.47;;
4980;SDS011;2507;50.392;7.482;2023-08-20T08:54:48;7.53;;;6.80;;
4980;SDS011;2507;50.392;7.482;2023-08-20T08:57:14;8.50;;;7.70;;
4980;SDS011;2507;50.392;7.482;2023-08-20T08:59:41;8.03;;;7.27;;
4980;SDS011;2507;50.392;7.482;2023-08-20T09:02:10;7.57;;;6.87;;
4980;SDS011;2507;50.392;7.482;2023-08-20T09:04:40;8.20;;;7.50;;
4980;SDS011;2507;50.392;7.482;2023-08-20T09:07:10;8.63;;;7.70;;
4980;SDS011;2507;50.392;7.482;2023-08-20T09:09:37;8.27;;;7.57;;
4980;SDS011;2507;50.392;7.482;2023-08-20T09:12:13;8.17;;;7.47;;
4980;SDS011;2507;50.392;7.482;2023-08-20T09:14:47;9.50;;;8.50;;
4980;SDS011;2507;50.392;7.482;2023-08-20T09:17:14;9.13;;;8.23;;
4980;SDS011;2507;50.392;7.482;2023-08-20T09:19:39;9.00;;;8.20;;
4980;SDS011;2507;50.392;7.482;2023-08-20T09:22:08;8.63;;;7.83;;
4980;SDS011;2507;50.392;7.482;2023-08-20T09:24:44;11.63;;;8.93;;
4980;SDS011;2507;50.392;7.482;2023-08-20T09:27:11;9.20;;;8.33;;
4980;SDS011;2507;50.392;7.482;2023-08-20T09:32:13;9.47;;;8.67;;
4980;SDS011;2507;50.392;7.482;2023-08-20T09:34:41;9.90;;;9.07;;
4980;SDS011;2507;50.392;7.482;2023-08-20T09:37:07;8.70;;;7.90;;
4980;SDS011;2507;50.392;7.482;2023-08-20T09:39:37;8.97;;;8.27;;
4980;SDS011;2507;50.392;7.482;2023-08-20T09:42:03;8.90;;;8.00;;
4980;SDS011;2507;50.392;7.482;2023-08-20T09:44:32;10.93;;;8.37;;
4980;SDS011;2507;50.392;7.482;2023-08-20T09:47:00;9.47;;;8.73;;
4980;SDS011;2507;50.392;7.482;2023-08-20T09:49:28;9.67;;;8.70;;
4980;SDS011;2507;50.392;7.482;2023-08-20T09:51:55;10.27;;;8.87;;
4980;SDS011;2507;50.392;7.482;2023-08-20T09:54:25;10.50;;;9.53;;
4980;SDS011;2507;50.392;7.482;2023-08-20T09:56:58;10.60;;;9.50;;
4980;SDS011;2507;50.392;7.482;2023-08-20T09:59:26;12.13;;;9.13;;
4980;SDS011;2507;50.392;7.482;2023-08-20T10:01:52;9.70;;;8.87;;
4980;SDS011;2507;50.392;7.482;2023-08-20T10:04:19;8.43;;;7.73;;
4980;SDS011;2507;50.392;7.482;2023-08-20T10:06:46;9.50;;;8.60;;
4980;SDS011;2507;50.392;7.482;2023-08-20T10:09:12;14.43;;;9.10;;
4980;SDS011;2507;50.392;7.482;2023-08-20T10:11:39;13.33;;;8.50;;
4980;SDS011;2507;50.392;7.482;2023-08-20T10:14:05;8.93;;;7.80;;
4980;SDS011;2507;50.392;7.482;2023-08-20T10:16:32;8.83;;;8.03;;
4980;SDS011;2507;50.392;7.482;2023-08-20T10:19:01;9.53;;;8.23;;
4980;SDS011;2507;50.392;7.482;2023-08-20T10:21:27;10.10;;;9.03;;
4980;SDS011;2507;50.392;7.482;2023-08-20T10:23:52;10.30;;;9.17;;
4980;SDS011;2507;50.392;7.482;2023-08-20T10:26:18;9.07;;;8.17;;
4980;SDS011;2507;50.392;7.482;2023-08-20T10:28:46;10.23;;;8.90;;
4980;SDS011;2507;50.392;7.482;2023-08-20T10:31:12;8.40;;;7.53;;
4980;SDS011;2507;50.392;7.482;2023-08-20T10:33:39;8.70;;;7.90;;
4980;SDS011;2507;50.392;7.482;2023-08-20T10:36:16;9.73;;;8.50;;
4980;SDS011;2507;50.392;7.482;2023-08-20T10:38:52;9.00;;;8.20;;
4980;SDS011;2507;50.392;7.482;2023-08-20T10:41:25;8.77;;;7.90;;
4980;SDS011;2507;50.392;7.482;2023-08-20T10:43:51;8.83;;;8.00;;
4980;SDS011;2507;50.392;7.482;2023-08-20T10:46:24;8.03;;;7.30;;
4980;SDS011;2507;50.392;7.482;2023-08-20T10:48:51;8.73;;;7.70;;
4980;SDS011;2507;50.392;7.482;2023-08-20T10:51:34;8.17;;;7.40;;
4980;SDS011;2507;50.392;7.482;2023-08-20T10:59:22;7.00;;;6.30;;
4980;SDS011;2507;50.392;7.482;2023-08-20T11:01:51;7.07;;;6.57;;
4980;SDS011;2507;50.392;7.482;2023-08-20T11:04:19;7.17;;;6.50;;
4980;SDS011;2507;50.392;7.482;2023-08-20T11:06:46;6.73;;;6.23;;
4980;SDS011;2507;50.392;7.482;2023-08-20T11:09:14;6.90;;;6.20;;
4980;SDS011;2507;50.392;7.482;2023-08-20T11:11:40;8.33;;;6.53;;
4980;SDS011;2507;50.392;7.482;2023-08-20T11:14:06;7.40;;;6.87;;
4980;SDS011;2507;50.392;7.482;2023-08-20T11:16:36;7.40;;;6.70;;
4980;SDS011;2507;50.392;7.482;2023-08-20T11:19:02;7.80;;;7.10;;
4980;SDS011;2507;50.392;7.482;2023-08-20T11:21:32;6.97;;;6.40;;
4980;SDS011;2507;50.392;7.482;2023-08-20T11:23:58;7.50;;;6.77;;
4980;SDS011;2507;50.392;7.482;2023-08-20T11:26:24;8.13;;;7.07;;
4980;SDS011;2507;50.392;7.482;2023-08-20T11:28:50;6.47;;;5.67;;
4980;SDS011;2507;50.392;7.482;2023-08-20T11:31:15;7.30;;;6.60;;
4980;SDS011;2507;50.392;7.482;2023-08-20T11:33:40;8.87;;;6.10;;
4980;SDS011;2507;50.392;7.482;2023-08-20T11:36:06;6.50;;;6.00;;
4980;SDS011;2507;50.392;7.482;2023-08-20T11:38:31;6.40;;;5.80;;
4980;SDS011;2507;50.392;7.482;2023-08-20T11:40:59;6.30;;;5.80;;
4980;SDS011;2507;50.392;7.482;2023-08-20T11:43:28;6.53;;;5.83;;
4980;SDS011;2507;50.392;7.482;2023-08-20T11:45:53;5.93;;;5.40;;
4980;SDS011;2507;50.392;7.482;2023-08-20T11:48:19;5.90;;;5.50;;
4980;SDS011;2507;50.392;7.482;2023-08-20T11:50:46;6.10;;;5.60;;
4980;SDS011;2507;50.392;7.482;2023-08-20T11:53:12;6.90;;;6.37;;
4980;SDS011;2507;50.392;7.482;2023-08-20T11:55:38;6.50;;;5.90;;
4980;SDS011;2507;50.392;7.482;2023-08-20T11:58:05;6.40;;;5.90;;
4980;SDS011;2507;50.392;7.482;2023-08-20T12:00:31;7.43;;;6.00;;
4980;SDS011;2507;50.392;7.482;2023-08-20T12:02:57;5.70;;;5.20;;
4980;SDS011;2507;50.392;7.482;2023-08-20T12:05:27;5.43;;;5.10;;
4980;SDS011;2507;50.392;7.482;2023-08-20T12:07:56;4.93;;;4.67;;
4980;SDS011;2507;50.392;7.482;2023-08-20T12:10:23;5.80;;;5.40;;
4980;SDS011;2507;50.392;7.482;2023-08-20T12:12:49;4.30;;;3.90;;
4980;SDS011;2507;50.392;7.482;2023-08-20T12:15:14;9.73;;;4.23;;
4980;SDS011;2507;50.392;7.482;2023-08-20T12:17:40;5.40;;;4.47;;
4980;SDS011;2507;50.392;7.482;2023-08-20T12:20:05;4.80;;;4.50;;
4980;SDS011;2507;50.392;7.482;2023-08-20T12:22:38;4.70;;;4.30;;
4980;SDS011;2507;50.392;7.482;2023-08-20T12:25:03;4.50;;;3.93;;
4980;SDS011;2507;50.392;7.482;2023-08-20T12:27:29;4.70;;;4.40;;
4980;SDS011;2507;50.392;7.482;2023-08-20T12:29:54;4.57;;;4.17;;
4980;SDS011;2507;50.392;7.482;2023-08-20T12:32:20;4.23;;;3.97;;
4980;SDS011;2507;50.392;7.482;2023-08-20T12:34:45;3.97;;;3.67;;
4980;SDS011;2507;50.392;7.482;2023-08-20T12:37:10;3.87;;;3.57;;
4980;SDS011;2507;50.392;7.482;2023-08-20T12:39:35;5.33;;;3.70;;
4980;SDS011;2507;50.392;7.482;2023-08-20T12:42:01;3.67;;;3.47;;
4980;SDS011;2507;50.392;7.482;2023-08-20T12:44:26;3.67;;;3.33;;
4980;SDS011;2507;50.392;7.482;2023-08-20T12:46:51;3.97;;;3.77;;
4980;SDS011;2507;50.392;7.482;2023-08-20T12:49:16;3.70;;;3.50;;
4980;SDS011;2507;50.392;7.482;2023-08-20T12:51:42;3.33;;;3.23;;
4980;SDS011;2507;50.392;7.482;2023-08-20T12:54:07;3.20;;;3.10;;
4980;SDS011;2507;50.392;7.482;2023-08-20T12:56:33;4.43;;;4.13;;
4980;SDS011;2507;50.392;7.482;2023-08-20T12:58:59;4.60;;;4.20;;
4980;SDS011;2507;50.392;7.482;2023-08-20T13:01:24;4.60;;;4.20;;
4980;SDS011;2507;50.392;7.482;2023-08-20T13:03:49;4.00;;;3.73;;
4980;SDS011;2507;50.392;7.482;2023-08-20T13:06:15;4.57;;;4.17;;
4980;SDS011;2507;50.392;7.482;2023-08-20T13:08:40;3.40;;;3.20;;
4980;SDS011;2507;50.392;7.482;2023-08-20T13:11:07;4.27;;;3.97;;
4980;SDS011;2507;50.392;7.482;2023-08-20T13:13:34;3.73;;;3.53;;
4980;SDS011;2507;50.392;7.482;2023-08-20T13:16:00;4.80;;;4.33;;
4980;SDS011;2507;50.392;7.482;2023-08-20T13:18:26;5.40;;;3.73;;
4980;SDS011;2507;50.392;7.482;2023-08-20T13:20:52;4.80;;;4.50;;
4980;SDS011;2507;50.392;7.482;2023-08-20T13:23:18;5.10;;;4.70;;
4980;SDS011;2507;50.392;7.482;2023-08-20T13:25:43;3.77;;;3.57;;
4980;SDS011;2507;50.392;7.482;2023-08-20T13:28:08;4.63;;;4.23;;
4980;SDS011;2507;50.392;7.482;2023-08-20T13:30:34;4.40;;;4.10;;
4980;SDS011;2507;50.392;7.482;2023-08-20T13:32:59;4.90;;;4.40;;
4980;SDS011;2507;50.392;7.482;2023-08-20T13:35:24;4.70;;;4.40;;
4980;SDS011;2507;50.392;7.482;2023-08-20T13:37:50;4.43;;;4.23;;
4980;SDS011;2507;50.392;7.482;2023-08-20T13:40:15;4.97;;;4.67;;
4980;SDS011;2507;50.392;7.482;2023-08-20T13:42:40;5.93;;;4.17;;
4980;SDS011;2507;50.392;7.482;2023-08-20T13:45:06;5.03;;;4.53;;
4980;SDS011;2507;50.392;7.482;2023-08-20T13:47:32;5.20;;;4.70;;
4980;SDS011;2507;50.392;7.482;2023-08-20T13:49:57;5.10;;;4.70;;
4980;SDS011;2507;50.392;7.482;2023-08-20T13:52:22;4.90;;;4.50;;
4980;SDS011;2507;50.392;7.482;2023-08-20T13:54:47;5.17;;;4.80;;
4980;SDS011;2507;50.392;7.482;2023-08-20T13:57:13;5.53;;;5.13;;
4980;SDS011;2507;50.392;7.482;2023-08-20T13:59:38;5.57;;;5.17;;
4980;SDS011;2507;50.392;7.482;2023-08-20T14:02:04;4.87;;;4.57;;
4980;SDS011;2507;50.392;7.482;2023-08-20T14:04:29;4.37;;;4.07;;
4980;SDS011;2507;50.392;7.482;2023-08-20T14:06:54;5.20;;;4.90;;
4980;SDS011;2507;50.392;7.482;2023-08-20T14:09:20;4.70;;;4.30;;
4980;SDS011;2507;50.392;7.482;2023-08-20T14:11:45;4.90;;;4.60;;
4980;SDS011;2507;50.392;7.482;2023-08-20T14:14:11;4.40;;;4.20;;
4980;SDS011;2507;50.392;7.482;2023-08-20T14:16:37;5.33;;;4.90;;
4980;SDS011;2507;50.392;7.482;2023-08-20T14:19:02;5.77;;;5.37;;
4980;SDS011;2507;50.392;7.482;2023-08-20T14:21:27;6.07;;;5.57;;
4980;SDS011;2507;50.392;7.482;2023-08-20T14:23:53;5.40;;;4.90;;
4980;SDS011;2507;50.392;7.482;2023-08-20T14:26:18;5.37;;;4.97;;
4980;SDS011;2507;50.392;7.482;2023-08-20T14:28:43;4.87;;;4.47;;
4980;SDS011;2507;50.392;7.482;2023-08-20T14:31:09;7.13;;;5.40;;
4980;SDS011;2507;50.392;7.482;2023-08-20T14:33:34;8.50;;;5.63;;
4980;SDS011;2507;50.392;7.482;2023-08-20T14:35:59;6.23;;;5.63;;
4980;SDS011;2507;50.392;7.482;2023-08-20T14:38:24;5.37;;;4.87;;
4980;SDS011;2507;50.392;7.482;2023-08-20T14:40:50;5.00;;;4.70;;
4980;SDS011;2507;50.392;7.482;2023-08-20T14:43:16;4.90;;;4.50;;
4980;SDS011;2507;50.392;7.482;2023-08-20T14:45:41;4.80;;;4.60;;
4980;SDS011;2507;50.392;7.482;2023-08-20T14:48:06;5.27;;;4.77;;
4980;SDS011;2507;50.392;7.482;2023-08-20T14:50:32;6.83;;;5.00;;
4980;SDS011;2507;50.392;7.482;2023-08-20T14:52:57;4.63;;;4.23;;
4980;SDS011;2507;50.392;7.482;2023-08-20T14:55:23;5.27;;;4.80;;
4980;SDS011;2507;50.392;7.482;2023-08-20T14:57:49;4.90;;;4.50;;
4980;SDS011;2507;50.392;7.482;2023-08-20T15:00:14;5.47;;;4.43;;
4980;SDS011;2507;50.392;7.482;2023-08-20T15:02:40;4.60;;;4.30;;
4980;SDS011;2507;50.392;7.482;2023-08-20T15:05:06;4.90;;;4.60;;
4980;SDS011;2507;50.392;7.482;2023-08-20T15:07:31;5.10;;;4.80;;
4980;SDS011;2507;50.392;7.482;2023-08-20T15:09:57;4.90;;;4.60;;
4980;SDS011;2507;50.392;7.482;2023-08-20T15:12:22;4.63;;;4.23;;